sensor_id;sensor_type;location;lat;lon;timestamp;temperature;humidity
43995;DHT22;51687;52.160;5.298;2023-04-24T00:11:05;14.70;66.30
43995;DHT22;51687;52.160;5.298;2023-04-24T00:25:47;14.70;66.60
43995;DHT22;51687;52.160;5.298;2023-04-24T00:52:48;14.40;67.60
43995;DHT22;51687;52.160;5.298;2023-04-24T00:55:15;14.40;67.00
43995;DHT22;51687;52.160;5.298;2023-04-24T00:57:43;14.40;67.20
43995;DHT22;51687;52.160;5.298;2023-04-24T01:00:10;14.40;67.40
43995;DHT22;51687;52.160;5.298;2023-04-24T01:02:43;14.30;67.40
43995;DHT22;51687;52.160;5.298;2023-04-24T01:05:13;14.40;67.20
43995;DHT22;51687;52.160;5.298;2023-04-24T01:07:41;14.40;67.30
43995;DHT22;51687;52.160;5.298;2023-04-24T01:10:13;14.40;67.20
43995;DHT22;51687;52.160;5.298;2023-04-24T01:12:40;14.40;67.30
43995;DHT22;51687;52.160;5.298;2023-04-24T01:15:08;14.50;67.40
43995;DHT22;51687;52.160;5.298;2023-04-24T01:17:35;14.40;67.20
43995;DHT22;51687;52.160;5.298;2023-04-24T01:20:02;14.40;67.30
43995;DHT22;51687;52.160;5.298;2023-04-24T01:22:33;14.40;67.50
43995;DHT22;51687;52.160;5.298;2023-04-24T01:25:01;14.40;67.90
43995;DHT22;51687;52.160;5.298;2023-04-24T01:27:28;14.40;68.10
43995;DHT22;51687;52.160;5.298;2023-04-24T01:29:55;14.40;68.00
43995;DHT22;51687;52.160;5.298;2023-04-24T01:32:21;14.40;68.00
43995;DHT22;51687;52.160;5.298;2023-04-24T01:34:49;14.40;67.80
43995;DHT22;51687;52.160;5.298;2023-04-24T01:37:17;14.50;67.90
43995;DHT22;51687;52.160;5.298;2023-04-24T01:39:44;14.50;67.70
43995;DHT22;51687;52.160;5.298;2023-04-24T01:42:12;14.50;67.60
43995;DHT22;51687;52.160;5.298;2023-04-24T01:44:39;14.50;67.60
43995;DHT22;51687;52.160;5.298;2023-04-24T01:47:06;14.60;67.50
43995;DHT22;51687;52.160;5.298;2023-04-24T01:49:33;14.50;67.40
43995;DHT22;51687;52.160;5.298;2023-04-24T01:52:00;14.50;68.10
43995;DHT22;51687;52.160;5.298;2023-04-24T01:54:27;14.50;67.50
43995;DHT22;51687;52.160;5.298;2023-04-24T01:56:54;14.50;67.50
43995;DHT22;51687;52.160;5.298;2023-04-24T01:59:21;14.50;67.40
43995;DHT22;51687;52.160;5.298;2023-04-24T02:01:50;14.50;67.50
43995;DHT22;51687;52.160;5.298;2023-04-24T02:04:17;14.50;67.50
43995;DHT22;51687;52.160;5.298;2023-04-24T02:06:44;14.60;67.30
43995;DHT22;51687;52.160;5.298;2023-04-24T02:09:11;14.60;67.80
43995;DHT22;51687;52.160;5.298;2023-04-24T02:11:38;14.50;67.50
43995;DHT22;51687;52.160;5.298;2023-04-24T02:14:04;14.50;67.80
43995;DHT22;51687;52.160;5.298;2023-04-24T02:16:31;14.50;67.90
43995;DHT22;51687;52.160;5.298;2023-04-24T02:18:59;14.50;67.90
43995;DHT22;51687;52.160;5.298;2023-04-24T02:21:26;14.50;67.80
43995;DHT22;51687;52.160;5.298;2023-04-24T02:23:54;14.50;67.90
43995;DHT22;51687;52.160;5.298;2023-04-24T02:26:20;14.50;67.90
43995;DHT22;51687;52.160;5.298;2023-04-24T02:28:47;14.50;67.90
43995;DHT22;51687;52.160;5.298;2023-04-24T02:31:14;14.50;67.80
43995;DHT22;51687;52.160;5.298;2023-04-24T02:33:41;14.50;67.80
43995;DHT22;51687;52.160;5.298;2023-04-24T02:36:08;14.50;67.70
43995;DHT22;51687;52.160;5.298;2023-04-24T02:38:34;14.50;67.50
43995;DHT22;51687;52.160;5.298;2023-04-24T02:41:01;14.60;67.60
43995;DHT22;51687;52.160;5.298;2023-04-24T02:43:28;14.50;67.40
43995;DHT22;51687;52.160;5.298;2023-04-24T02:45:55;14.50;67.30
43995;DHT22;51687;52.160;5.298;2023-04-24T02:48:22;14.50;67.10
43995;DHT22;51687;52.160;5.298;2023-04-24T02:50:49;14.50;66.90
43995;DHT22;51687;52.160;5.298;2023-04-24T02:53:16;14.50;66.70
43995;DHT22;51687;52.160;5.298;2023-04-24T02:55:43;14.50;66.50
43995;DHT22;51687;52.160;5.298;2023-04-24T02:58:10;14.50;66.30
43995;DHT22;51687;52.160;5.298;2023-04-24T03:00:39;14.50;66.00
43995;DHT22;51687;52.160;5.298;2023-04-24T03:03:06;14.50;66.10
43995;DHT22;51687;52.160;5.298;2023-04-24T03:05:34;14.50;66.10
43995;DHT22;51687;52.160;5.298;2023-04-24T03:08:00;14.40;66.10
43995;DHT22;51687;52.160;5.298;2023-04-24T03:10:27;14.40;66.00
43995;DHT22;51687;52.160;5.298;2023-04-24T03:12:54;14.40;66.10
43995;DHT22;51687;52.160;5.298;2023-04-24T03:15:22;14.40;66.10
43995;DHT22;51687;52.160;5.298;2023-04-24T03:17:48;14.40;66.10
43995;DHT22;51687;52.160;5.298;2023-04-24T03:20:15;14.30;66.10
43995;DHT22;51687;52.160;5.298;2023-04-24T03:22:43;14.30;66.30
43995;DHT22;51687;52.160;5.298;2023-04-24T03:25:10;14.30;66.50
43995;DHT22;51687;52.160;5.298;2023-04-24T03:27:37;14.30;66.60
43995;DHT22;51687;52.160;5.298;2023-04-24T03:30:05;14.30;66.80
43995;DHT22;51687;52.160;5.298;2023-04-24T03:32:32;14.40;67.00
43995;DHT22;51687;52.160;5.298;2023-04-24T03:34:59;14.40;66.80
43995;DHT22;51687;52.160;5.298;2023-04-24T03:37:25;14.40;66.80
43995;DHT22;51687;52.160;5.298;2023-04-24T03:39:53;14.30;67.00
43995;DHT22;51687;52.160;5.298;2023-04-24T03:42:19;14.30;67.10
43995;DHT22;51687;52.160;5.298;2023-04-24T03:44:46;14.30;67.20
43995;DHT22;51687;52.160;5.298;2023-04-24T03:47:13;14.40;67.00
43995;DHT22;51687;52.160;5.298;2023-04-24T03:49:39;14.40;67.00
43995;DHT22;51687;52.160;5.298;2023-04-24T03:52:07;14.40;67.00
43995;DHT22;51687;52.160;5.298;2023-04-24T03:54:33;14.40;67.00
43995;DHT22;51687;52.160;5.298;2023-04-24T03:57:00;14.40;66.90
43995;DHT22;51687;52.160;5.298;2023-04-24T03:59:30;14.40;66.90
43995;DHT22;51687;52.160;5.298;2023-04-24T04:01:56;14.40;66.90
43995;DHT22;51687;52.160;5.298;2023-04-24T04:04:23;14.40;67.10
43995;DHT22;51687;52.160;5.298;2023-04-24T04:06:50;14.40;66.90
43995;DHT22;51687;52.160;5.298;2023-04-24T04:09:17;14.40;66.80
43995;DHT22;51687;52.160;5.298;2023-04-24T04:11:47;14.40;66.90
43995;DHT22;51687;52.160;5.298;2023-04-24T04:14:14;14.40;66.80
43995;DHT22;51687;52.160;5.298;2023-04-24T04:16:40;14.40;66.70
43995;DHT22;51687;52.160;5.298;2023-04-24T04:19:07;14.40;66.60
43995;DHT22;51687;52.160;5.298;2023-04-24T04:21:34;14.40;66.70
43995;DHT22;51687;52.160;5.298;2023-04-24T04:24:01;14.40;66.70
43995;DHT22;51687;52.160;5.298;2023-04-24T04:26:27;14.40;66.60
43995;DHT22;51687;52.160;5.298;2023-04-24T04:28:54;14.50;66.90
43995;DHT22;51687;52.160;5.298;2023-04-24T04:31:21;14.50;67.00
43995;DHT22;51687;52.160;5.298;2023-04-24T04:33:48;14.50;66.90
43995;DHT22;51687;52.160;5.298;2023-04-24T04:36:14;14.50;66.80
43995;DHT22;51687;52.160;5.298;2023-04-24T04:38:43;14.50;66.90
43995;DHT22;51687;52.160;5.298;2023-04-24T04:41:11;14.50;67.00
43995;DHT22;51687;52.160;5.298;2023-04-24T04:43:38;14.50;66.90
43995;DHT22;51687;52.160;5.298;2023-04-24T04:46:07;14.50;67.50
43995;DHT22;51687;52.160;5.298;2023-04-24T04:48:35;14.40;67.00
43995;DHT22;51687;52.160;5.298;2023-04-24T04:51:01;14.40;67.00
43995;DHT22;51687;52.160;5.298;2023-04-24T04:53:28;14.40;67.20
43995;DHT22;51687;52.160;5.298;2023-04-24T04:55:55;14.50;67.30
43995;DHT22;51687;52.160;5.298;2023-04-24T04:58:22;14.50;67.40
43995;DHT22;51687;52.160;5.298;2023-04-24T05:00:48;14.50;67.30
43995;DHT22;51687;52.160;5.298;2023-04-24T05:03:15;14.50;67.40
43995;DHT22;51687;52.160;5.298;2023-04-24T05:05:47;14.50;67.40
43995;DHT22;51687;52.160;5.298;2023-04-24T05:08:14;14.50;67.50
43995;DHT22;51687;52.160;5.298;2023-04-24T05:10:43;14.50;67.50
43995;DHT22;51687;52.160;5.298;2023-04-24T05:13:10;14.50;67.30
43995;DHT22;51687;52.160;5.298;2023-04-24T05:15:39;14.50;67.30
43995;DHT22;51687;52.160;5.298;2023-04-24T05:18:06;14.50;67.20
43995;DHT22;51687;52.160;5.298;2023-04-24T05:20:33;14.50;67.40
43995;DHT22;51687;52.160;5.298;2023-04-24T05:23:00;14.50;67.50
43995;DHT22;51687;52.160;5.298;2023-04-24T05:25:27;14.50;67.60
43995;DHT22;51687;52.160;5.298;2023-04-24T05:27:53;14.50;67.60
43995;DHT22;51687;52.160;5.298;2023-04-24T05:30:20;14.50;67.60
43995;DHT22;51687;52.160;5.298;2023-04-24T05:32:47;14.50;67.70
43995;DHT22;51687;52.160;5.298;2023-04-24T05:35:14;14.50;67.60
43995;DHT22;51687;52.160;5.298;2023-04-24T05:37:41;14.40;67.60
43995;DHT22;51687;52.160;5.298;2023-04-24T05:40:08;14.40;67.40
43995;DHT22;51687;52.160;5.298;2023-04-24T05:42:35;14.40;67.00
43995;DHT22;51687;52.160;5.298;2023-04-24T05:45:02;14.30;67.10
43995;DHT22;51687;52.160;5.298;2023-04-24T05:47:29;14.40;67.20
43995;DHT22;51687;52.160;5.298;2023-04-24T05:49:56;14.30;67.10
43995;DHT22;51687;52.160;5.298;2023-04-24T05:52:23;14.30;67.10
43995;DHT22;51687;52.160;5.298;2023-04-24T05:54:50;14.20;67.30
43995;DHT22;51687;52.160;5.298;2023-04-24T05:57:17;14.20;67.30
43995;DHT22;51687;52.160;5.298;2023-04-24T05:59:43;14.20;67.30
43995;DHT22;51687;52.160;5.298;2023-04-24T06:02:10;14.20;66.80
43995;DHT22;51687;52.160;5.298;2023-04-24T06:04:37;14.20;67.00
43995;DHT22;51687;52.160;5.298;2023-04-24T06:07:04;14.20;67.00
43995;DHT22;51687;52.160;5.298;2023-04-24T06:09:31;14.10;66.80
43995;DHT22;51687;52.160;5.298;2023-04-24T06:11:59;14.10;67.10
43995;DHT22;51687;52.160;5.298;2023-04-24T06:14:26;14.10;67.30
43995;DHT22;51687;52.160;5.298;2023-04-24T06:16:53;14.10;67.40
43995;DHT22;51687;52.160;5.298;2023-04-24T06:19:20;14.20;67.30
43995;DHT22;51687;52.160;5.298;2023-04-24T06:21:46;14.20;67.20
43995;DHT22;51687;52.160;5.298;2023-04-24T06:24:14;14.20;67.00
43995;DHT22;51687;52.160;5.298;2023-04-24T06:26:42;14.30;67.00
43995;DHT22;51687;52.160;5.298;2023-04-24T06:29:09;14.30;67.10
43995;DHT22;51687;52.160;5.298;2023-04-24T06:31:36;14.30;67.10
43995;DHT22;51687;52.160;5.298;2023-04-24T06:34:04;14.30;66.90
43995;DHT22;51687;52.160;5.298;2023-04-24T06:36:30;14.30;67.00
43995;DHT22;51687;52.160;5.298;2023-04-24T06:38:57;14.30;67.00
43995;DHT22;51687;52.160;5.298;2023-04-24T06:41:24;14.30;66.80
43995;DHT22;51687;52.160;5.298;2023-04-24T06:43:51;14.30;66.70
43995;DHT22;51687;52.160;5.298;2023-04-24T06:46:18;14.40;66.60
43995;DHT22;51687;52.160;5.298;2023-04-24T06:48:45;14.40;66.20
43995;DHT22;51687;52.160;5.298;2023-04-24T06:51:12;14.50;66.10
43995;DHT22;51687;52.160;5.298;2023-04-24T06:53:38;14.50;65.90
43995;DHT22;51687;52.160;5.298;2023-04-24T06:56:06;14.50;65.80
43995;DHT22;51687;52.160;5.298;2023-04-24T06:58:32;14.60;65.70
43995;DHT22;51687;52.160;5.298;2023-04-24T07:00:59;14.60;65.70
43995;DHT22;51687;52.160;5.298;2023-04-24T07:03:26;14.60;65.60
43995;DHT22;51687;52.160;5.298;2023-04-24T07:05:54;14.60;65.40
43995;DHT22;51687;52.160;5.298;2023-04-24T07:08:21;14.60;65.20
43995;DHT22;51687;52.160;5.298;2023-04-24T07:10:49;14.60;65.20
43995;DHT22;51687;52.160;5.298;2023-04-24T07:13:17;14.60;64.90
43995;DHT22;51687;52.160;5.298;2023-04-24T07:15:44;14.60;64.70
43995;DHT22;51687;52.160;5.298;2023-04-24T07:18:10;14.60;64.60
43995;DHT22;51687;52.160;5.298;2023-04-24T07:20:37;14.70;64.40
43995;DHT22;51687;52.160;5.298;2023-04-24T08:17:14;14.70;64.40
43995;DHT22;51687;52.160;5.298;2023-04-24T08:19:42;14.10;65.30
43995;DHT22;51687;52.160;5.298;2023-04-24T08:22:17;14.10;65.10
43995;DHT22;51687;52.160;5.298;2023-04-24T08:24:44;14.00;64.40
43995;DHT22;51687;52.160;5.298;2023-04-24T08:27:10;14.00;65.00
43995;DHT22;51687;52.160;5.298;2023-04-24T08:29:37;14.00;65.30
43995;DHT22;51687;52.160;5.298;2023-04-24T08:32:04;14.00;65.20
43995;DHT22;51687;52.160;5.298;2023-04-24T08:34:32;13.90;65.40
43995;DHT22;51687;52.160;5.298;2023-04-24T08:36:59;13.90;65.30
43995;DHT22;51687;52.160;5.298;2023-04-24T08:39:26;13.90;65.60
43995;DHT22;51687;52.160;5.298;2023-04-24T08:41:52;13.90;65.90
43995;DHT22;51687;52.160;5.298;2023-04-24T08:44:19;13.90;65.80
43995;DHT22;51687;52.160;5.298;2023-04-24T08:46:50;13.80;65.60
43995;DHT22;51687;52.160;5.298;2023-04-24T08:49:18;13.80;65.10
43995;DHT22;51687;52.160;5.298;2023-04-24T08:51:45;13.80;64.70
43995;DHT22;51687;52.160;5.298;2023-04-24T08:54:15;13.80;64.20
43995;DHT22;51687;52.160;5.298;2023-04-24T09:19:02;13.80;64.00
43995;DHT22;51687;52.160;5.298;2023-04-24T12:25:14;13.70;62.80
43995;DHT22;51687;52.160;5.298;2023-04-24T12:27:42;14.20;52.50
43995;DHT22;51687;52.160;5.298;2023-04-24T12:30:14;14.10;53.90
43995;DHT22;51687;52.160;5.298;2023-04-24T12:32:50;14.10;54.30
43995;DHT22;51687;52.160;5.298;2023-04-24T12:35:23;14.20;53.50
43995;DHT22;51687;52.160;5.298;2023-04-24T12:37:50;14.30;53.80
43995;DHT22;51687;52.160;5.298;2023-04-24T12:40:18;14.30;52.80
43995;DHT22;51687;52.160;5.298;2023-04-24T12:42:47;14.30;52.60
43995;DHT22;51687;52.160;5.298;2023-04-24T12:45:16;14.30;53.20
43995;DHT22;51687;52.160;5.298;2023-04-24T12:47:44;14.30;53.90
43995;DHT22;51687;52.160;5.298;2023-04-24T12:50:13;14.20;54.40
43995;DHT22;51687;52.160;5.298;2023-04-24T12:52:40;14.20;54.30
43995;DHT22;51687;52.160;5.298;2023-04-24T12:55:08;14.10;55.30
43995;DHT22;51687;52.160;5.298;2023-04-24T12:57:37;14.00;55.40
43995;DHT22;51687;52.160;5.298;2023-04-24T13:00:05;14.00;56.30
43995;DHT22;51687;52.160;5.298;2023-04-24T13:07:28;13.90;56.80
43995;DHT22;51687;52.160;5.298;2023-04-24T14:48:37;13.70;58.10
43995;DHT22;51687;52.160;5.298;2023-04-24T14:51:04;14.70;52.60
43995;DHT22;51687;52.160;5.298;2023-04-24T14:53:30;14.70;53.20
43995;DHT22;51687;52.160;5.298;2023-04-24T14:55:57;14.80;53.80
43995;DHT22;51687;52.160;5.298;2023-04-24T14:58:24;14.70;52.50
43995;DHT22;51687;52.160;5.298;2023-04-24T15:00:51;14.80;52.60
43995;DHT22;51687;52.160;5.298;2023-04-24T15:03:20;14.80;51.20
43995;DHT22;51687;52.160;5.298;2023-04-24T15:05:49;14.70;51.80
43995;DHT22;51687;52.160;5.298;2023-04-24T15:08:16;14.70;52.40
43995;DHT22;51687;52.160;5.298;2023-04-24T15:10:43;14.70;51.60
43995;DHT22;51687;52.160;5.298;2023-04-24T15:13:10;14.70;51.70
43995;DHT22;51687;52.160;5.298;2023-04-24T15:15:36;14.60;52.10
43995;DHT22;51687;52.160;5.298;2023-04-24T15:18:04;14.60;52.50
43995;DHT22;51687;52.160;5.298;2023-04-24T15:20:32;14.70;53.20
43995;DHT22;51687;52.160;5.298;2023-04-24T15:22:59;14.70;53.00
43995;DHT22;51687;52.160;5.298;2023-04-24T15:25:26;14.70;52.60
43995;DHT22;51687;52.160;5.298;2023-04-24T15:27:54;14.60;50.90
43995;DHT22;51687;52.160;5.298;2023-04-24T15:30:21;14.60;49.40
43995;DHT22;51687;52.160;5.298;2023-04-24T15:32:48;14.50;50.20
43995;DHT22;51687;52.160;5.298;2023-04-24T15:35:15;14.50;50.80
43995;DHT22;51687;52.160;5.298;2023-04-24T15:37:42;14.60;50.70
43995;DHT22;51687;52.160;5.298;2023-04-24T15:40:10;14.60;50.60
43995;DHT22;51687;52.160;5.298;2023-04-24T15:42:40;14.60;51.00
43995;DHT22;51687;52.160;5.298;2023-04-24T15:45:07;14.70;51.10
43995;DHT22;51687;52.160;5.298;2023-04-24T15:47:34;14.70;51.40
43995;DHT22;51687;52.160;5.298;2023-04-24T15:50:06;14.70;50.70
43995;DHT22;51687;52.160;5.298;2023-04-24T15:52:37;14.70;50.40
43995;DHT22;51687;52.160;5.298;2023-04-24T15:55:04;14.70;49.60
43995;DHT22;51687;52.160;5.298;2023-04-24T19:24:21;14.60;49.40
43995;DHT22;51687;52.160;5.298;2023-04-24T19:26:48;14.00;53.90
43995;DHT22;51687;52.160;5.298;2023-04-24T19:29:15;13.90;53.50
43995;DHT22;51687;52.160;5.298;2023-04-24T19:31:42;13.90;54.00
43995;DHT22;51687;52.160;5.298;2023-04-24T19:34:09;13.90;54.70
43995;DHT22;51687;52.160;5.298;2023-04-24T19:36:36;13.80;54.40
43995;DHT22;51687;52.160;5.298;2023-04-24T19:39:03;13.80;54.70
43995;DHT22;51687;52.160;5.298;2023-04-24T19:41:30;13.80;54.80
43995;DHT22;51687;52.160;5.298;2023-04-24T20:01:09;13.70;55.20
43995;DHT22;51687;52.160;5.298;2023-04-24T20:03:36;13.50;57.10
43995;DHT22;51687;52.160;5.298;2023-04-24T20:06:03;13.40;57.50
43995;DHT22;51687;52.160;5.298;2023-04-24T20:08:31;13.40;57.90
43995;DHT22;51687;52.160;5.298;2023-04-24T20:10:58;13.40;58.00
43995;DHT22;51687;52.160;5.298;2023-04-24T20:13:25;13.50;58.20
43995;DHT22;51687;52.160;5.298;2023-04-24T20:15:57;13.50;58.30
43995;DHT22;51687;52.160;5.298;2023-04-24T20:18:24;13.50;58.50
43995;DHT22;51687;52.160;5.298;2023-04-24T20:20:54;13.40;58.80
43995;DHT22;51687;52.160;5.298;2023-04-24T20:23:25;13.50;59.00
43995;DHT22;51687;52.160;5.298;2023-04-24T20:25:52;13.50;58.90
43995;DHT22;51687;52.160;5.298;2023-04-24T20:28:26;13.50;59.00
43995;DHT22;51687;52.160;5.298;2023-04-24T20:30:56;13.50;59.40
43995;DHT22;51687;52.160;5.298;2023-04-24T20:33:23;13.50;59.90
43995;DHT22;51687;52.160;5.298;2023-04-24T20:35:51;13.50;60.00
43995;DHT22;51687;52.160;5.298;2023-04-24T20:38:18;13.50;60.30
43995;DHT22;51687;52.160;5.298;2023-04-24T20:40:44;13.50;60.50
43995;DHT22;51687;52.160;5.298;2023-04-24T20:43:23;13.50;60.60
43995;DHT22;51687;52.160;5.298;2023-04-24T20:45:54;13.40;60.60
43995;DHT22;51687;52.160;5.298;2023-04-24T20:48:22;13.30;61.10
43995;DHT22;51687;52.160;5.298;2023-04-24T20:50:51;13.40;61.10
43995;DHT22;51687;52.160;5.298;2023-04-24T20:53:21;13.40;60.80
43995;DHT22;51687;52.160;5.298;2023-04-24T20:55:48;13.40;60.90
43995;DHT22;51687;52.160;5.298;2023-04-24T20:58:15;13.40;61.60
43995;DHT22;51687;52.160;5.298;2023-04-24T21:00:44;13.50;61.00
43995;DHT22;51687;52.160;5.298;2023-04-24T21:03:12;13.40;61.00
43995;DHT22;51687;52.160;5.298;2023-04-24T21:05:39;13.40;61.00
43995;DHT22;51687;52.160;5.298;2023-04-24T21:08:06;13.40;61.30
43995;DHT22;51687;52.160;5.298;2023-04-24T21:10:35;13.40;61.40
43995;DHT22;51687;52.160;5.298;2023-04-24T21:13:01;13.40;61.50
43995;DHT22;51687;52.160;5.298;2023-04-24T21:15:28;13.40;61.60
43995;DHT22;51687;52.160;5.298;2023-04-24T21:17:56;13.50;61.60
43995;DHT22;51687;52.160;5.298;2023-04-24T21:20:23;13.40;61.40
43995;DHT22;51687;52.160;5.298;2023-04-24T21:22:49;13.40;61.60
43995;DHT22;51687;52.160;5.298;2023-04-24T21:25:16;13.40;61.40
43995;DHT22;51687;52.160;5.298;2023-04-24T21:27:43;13.30;61.60
43995;DHT22;51687;52.160;5.298;2023-04-24T21:30:10;13.30;61.80
43995;DHT22;51687;52.160;5.298;2023-04-24T21:32:37;13.30;61.70
43995;DHT22;51687;52.160;5.298;2023-04-24T21:35:06;13.30;61.60
43995;DHT22;51687;52.160;5.298;2023-04-24T21:37:33;13.30;61.50
43995;DHT22;51687;52.160;5.298;2023-04-24T21:40:01;13.30;61.30
43995;DHT22;51687;52.160;5.298;2023-04-24T21:42:30;13.30;61.00
43995;DHT22;51687;52.160;5.298;2023-04-24T21:44:57;13.30;61.10
43995;DHT22;51687;52.160;5.298;2023-04-24T21:47:24;13.30;60.90
43995;DHT22;51687;52.160;5.298;2023-04-24T21:49:51;13.30;60.60
43995;DHT22;51687;52.160;5.298;2023-04-24T21:52:17;13.30;60.30
43995;DHT22;51687;52.160;5.298;2023-04-24T21:54:44;13.30;60.40
43995;DHT22;51687;52.160;5.298;2023-04-24T21:57:11;13.30;60.60
43995;DHT22;51687;52.160;5.298;2023-04-24T21:59:38;13.30;60.30
43995;DHT22;51687;52.160;5.298;2023-04-24T22:02:05;13.30;60.20
43995;DHT22;51687;52.160;5.298;2023-04-24T22:04:31;13.30;60.50
43995;DHT22;51687;52.160;5.298;2023-04-24T22:06:58;13.30;60.60
43995;DHT22;51687;52.160;5.298;2023-04-24T22:09:25;13.30;60.80
43995;DHT22;51687;52.160;5.298;2023-04-24T22:11:52;13.30;60.60
43995;DHT22;51687;52.160;5.298;2023-04-24T22:14:19;13.30;60.50
43995;DHT22;51687;52.160;5.298;2023-04-24T22:16:46;13.30;60.90
43995;DHT22;51687;52.160;5.298;2023-04-24T22:19:14;13.20;60.60
43995;DHT22;51687;52.160;5.298;2023-04-24T22:21:41;13.20;60.40
43995;DHT22;51687;52.160;5.298;2023-04-24T22:24:08;13.20;60.40
43995;DHT22;51687;52.160;5.298;2023-04-24T22:26:34;13.20;60.30
43995;DHT22;51687;52.160;5.298;2023-04-24T22:29:01;13.20;60.40
43995;DHT22;51687;52.160;5.298;2023-04-24T22:31:28;13.20;60.30
43995;DHT22;51687;52.160;5.298;2023-04-24T23:18:07;13.20;60.00
43995;DHT22;51687;52.160;5.298;2023-04-24T23:20:34;13.00;60.20
43995;DHT22;51687;52.160;5.298;2023-04-24T23:23:01;13.00;59.50
43995;DHT22;51687;52.160;5.298;2023-04-24T23:25:27;13.00;59.20
43995;DHT22;51687;52.160;5.298;2023-04-24T23:27:54;13.00;59.10
43995;DHT22;51687;52.160;5.298;2023-04-24T23:30:21;13.00;59.20
43995;DHT22;51687;52.160;5.298;2023-04-24T23:32:48;12.90;59.00
43995;DHT22;51687;52.160;5.298;2023-04-24T23:40:09;12.90;59.10
43995;DHT22;51687;52.160;5.298;2023-04-24T23:42:36;12.90;59.00
43995;DHT22;51687;52.160;5.298;2023-04-24T23:45:04;12.80;58.90
43995;DHT22;51687;52.160;5.298;2023-04-24T23:47:34;12.80;58.70
43995;DHT22;51687;52.160;5.298;2023-04-24T23:50:00;12.80;58.60
43995;DHT22;51687;52.160;5.298;2023-04-24T23:52:27;12.80;58.60
43995;DHT22;51687;52.160;5.298;2023-04-24T23:54:54;12.80;58.70
43995;DHT22;51687;52.160;5.298;2023-04-24T23:57:21;12.70;58.60
43995;DHT22;51687;52.160;5.298;2023-04-24T23:59:47;12.70;58.40
